createdAt,value
2022-12-24T00:06:44.958Z,99833.16
2022-12-24T00:16:49.050Z,99839.38
2022-12-24T00:26:50.343Z,99852.00
2022-12-24T00:36:51.568Z,99855.97
2022-12-24T00:46:52.843Z,99881.38
2022-12-24T00:56:54.114Z,99899.66
2022-12-24T01:06:56.428Z,99918.69
2022-12-24T01:16:58.124Z,99913.81
2022-12-24T01:26:59.502Z,99934.09
2022-12-24T01:37:01.101Z,99956.44
2022-12-24T01:47:02.392Z,99991.28
2022-12-24T01:57:03.710Z,99986.75
2022-12-24T02:07:05.292Z,99977.44
2022-12-24T02:17:06.618Z,99995.25
2022-12-24T02:27:07.865Z,99993.44
2022-12-24T02:37:09.092Z,99997.13
2022-12-24T02:47:10.402Z,100018.34
2022-12-24T02:57:11.720Z,100016.50
2022-12-24T03:07:13.003Z,100030.47
2022-12-24T03:17:14.308Z,100012.97
2022-12-24T03:27:15.578Z,100022.47
2022-12-24T03:37:16.827Z,100013.59
2022-12-24T03:47:18.070Z,100034.28
2022-12-24T03:57:19.295Z,100039.81
2022-12-24T04:07:20.536Z,100045.03
2022-12-24T04:17:21.839Z,100046.94
2022-12-24T04:27:28.362Z,100057.41
2022-12-24T04:37:31.715Z,100064.25
2022-12-24T04:47:32.995Z,100082.50
2022-12-24T04:57:35.632Z,100088.78
2022-12-24T05:07:36.958Z,100075.41
2022-12-24T05:17:38.234Z,100072.84
2022-12-24T05:27:39.457Z,100085.22
2022-12-24T05:37:40.687Z,100091.53
2022-12-24T05:47:43.679Z,100104.53
2022-12-24T05:57:45.092Z,100120.31
2022-12-24T06:07:46.630Z,100115.38
2022-12-24T06:17:47.905Z,100141.41
2022-12-24T06:27:49.197Z,100164.06
2022-12-24T06:37:50.415Z,100179.72
2022-12-24T06:47:51.652Z,100191.94
2022-12-24T06:57:52.905Z,100204.22
2022-12-24T07:07:54.228Z,100217.06
2022-12-24T07:17:55.563Z,100220.97
2022-12-24T07:27:56.872Z,100214.81
2022-12-24T07:37:58.132Z,100212.19
2022-12-24T07:47:59.397Z,100226.28
2022-12-24T07:58:00.641Z,100233.25
2022-12-24T08:08:02.035Z,100239.41
2022-12-24T08:18:04.491Z,100256.66
2022-12-24T08:28:05.741Z,100259.28
2022-12-24T08:38:06.991Z,100259.31
2022-12-24T08:48:08.325Z,100268.72
2022-12-24T08:58:09.591Z,100278.97
2022-12-24T09:08:10.919Z,100280.63
2022-12-24T09:18:12.198Z,100307.38
2022-12-24T09:28:13.454Z,100318.63
2022-12-24T09:38:14.734Z,100332.56
2022-12-24T09:48:16.040Z,100341.19
2022-12-24T09:58:17.277Z,100349.19
2022-12-24T10:08:18.683Z,100361.31
2022-12-24T10:18:20.307Z,100367.34
2022-12-24T10:28:21.597Z,100366.72
2022-12-24T10:38:22.884Z,100372.88
2022-12-24T10:48:24.203Z,100365.84
2022-12-24T10:58:25.440Z,100357.59
2022-12-24T11:08:26.693Z,100344.84
2022-12-24T11:18:27.927Z,100352.31
2022-12-24T11:28:29.229Z,100362.25
2022-12-24T11:38:30.459Z,100352.31
2022-12-24T11:48:31.726Z,100335.84
2022-12-24T11:58:32.932Z,100330.97
2022-12-24T12:08:34.257Z,100333.16
2022-12-24T12:18:35.483Z,100332.81
2022-12-24T12:28:36.792Z,100343.59
2022-12-24T12:38:38.085Z,100336.97
2022-12-24T12:48:39.923Z,100336.78
2022-12-24T12:58:41.280Z,100348.03
2022-12-24T13:08:42.647Z,100354.00
2022-12-24T13:18:44.367Z,100356.47
2022-12-24T13:28:45.646Z,100341.38
2022-12-24T13:38:46.924Z,100345.16
2022-12-24T13:48:48.161Z,100326.50
2022-12-24T13:58:49.407Z,100341.53
2022-12-24T14:08:50.656Z,100338.28
2022-12-24T14:19:02.794Z,100320.19
2022-12-24T14:29:04.291Z,100337.00
2022-12-24T14:39:05.540Z,100332.81
2022-12-24T14:49:06.760Z,100348.34
2022-12-24T14:59:08.017Z,100344.63
2022-12-24T15:09:09.314Z,100346.56
2022-12-24T15:19:10.631Z,100355.47
2022-12-24T15:29:11.869Z,100356.47
2022-12-24T15:39:13.093Z,100381.25
2022-12-24T15:49:14.355Z,100390.28
2022-12-24T15:59:16.013Z,100403.63
2022-12-24T16:09:17.406Z,100413.34
2022-12-24T16:19:18.676Z,100409.19
2022-12-24T16:29:20.827Z,100415.41
2022-12-24T16:39:25.161Z,100431.34
2022-12-24T16:49:26.445Z,100428.75
2022-12-24T16:59:27.684Z,100430.59
2022-12-24T17:09:28.978Z,100447.31
2022-12-24T17:19:30.237Z,100442.13
2022-12-24T17:29:31.494Z,100465.72
2022-12-24T17:39:32.751Z,100462.22
2022-12-24T17:49:34.002Z,100454.41
2022-12-24T17:59:35.231Z,100439.66
2022-12-24T18:09:36.482Z,100449.31
2022-12-24T18:19:37.696Z,100451.03
2022-12-24T18:29:41.550Z,100449.31
2022-12-24T18:39:42.783Z,100457.13
2022-12-24T18:49:44.044Z,100445.78
2022-12-24T18:59:45.336Z,100444.88
2022-12-24T19:09:48.459Z,100452.66
2022-12-24T19:19:49.838Z,100465.66
2022-12-24T19:29:51.134Z,100476.09
2022-12-24T19:39:52.353Z,100487.34
2022-12-24T19:49:53.570Z,100497.78
2022-12-24T19:59:54.846Z,100496.81
2022-12-24T20:09:56.395Z,100490.66
2022-12-24T20:19:57.983Z,100480.22
2022-12-24T20:29:59.263Z,100497.69
2022-12-24T20:40:00.604Z,100509.88
2022-12-24T20:50:01.899Z,100529.88
2022-12-24T21:00:03.210Z,100546.38
2022-12-24T21:10:04.502Z,100548.19
2022-12-24T21:20:05.775Z,100546.47
2022-12-24T21:30:08.143Z,100519.44
2022-12-24T21:40:09.387Z,100487.34
2022-12-24T21:50:32.146Z,100485.63
2022-12-24T22:00:33.770Z,100481.34
2022-12-24T22:10:53.547Z,100476.19
2022-12-24T22:20:55.887Z,100470.19
2022-12-24T22:30:57.196Z,100485.88
2022-12-24T22:40:58.504Z,100479.03
2022-12-24T22:50:59.771Z,100496.50
2022-12-24T23:01:01.010Z,100494.66
2022-12-24T23:11:02.259Z,100487.75
2022-12-24T23:21:03.475Z,100489.53
2022-12-24T23:31:05.019Z,100482.63
2022-12-24T23:41:06.269Z,100473.06
2022-12-24T23:51:07.519Z,100486.13
